Time;durP1;ratioP1;P1;durP2;ratioP2;P2;SDS_P1;SDS_P2;PMS_P1;PMS_P2;Temp;Humidity;BMP_temperature;BMP_pressure;BME280_temperature;BME280_humidity;BME280_pressure;Samples;Min_cycle;Max_cycle;Signal;HPM_P1;HPM_P2
2022/05/21 00:02:12;;;;;;;;;;;17.40;58.90;;;;;;5090230;28;20445;-57
2022/05/21 00:04:41;;;;;;;;;;;17.40;58.80;;;;;;5085809;28;20330;-57
2022/05/21 00:07:07;;;;;;;;;;;17.40;58.80;;;;;;5088537;28;20287;-58
2022/05/21 00:09:33;;;;;;;;;;;17.40;58.60;;;;;;5085954;28;20011;-57
2022/05/21 00:11:58;;;;;;;;;;;17.40;58.60;;;;;;5087158;28;20004;-57
2022/05/21 00:14:24;;;;;;;;;;;17.40;58.60;;;;;;5089549;28;19950;-57
2022/05/21 00:16:49;;;;;;;;;;;17.40;58.60;;;;;;5088189;28;20002;-57
2022/05/21 00:19:15;;;;;;;;;;;17.40;58.50;;;;;;5089969;28;19912;-57
2022/05/21 00:21:41;;;;;;;;;;;17.40;58.40;;;;;;5088098;28;19913;-56
2022/05/21 00:24:06;;;;;;;;;;;17.40;58.40;;;;;;5087595;28;19954;-56
2022/05/21 00:26:32;;;;;;;;;;;17.40;58.30;;;;;;5090394;28;19919;-57
2022/05/21 00:28:58;;;;;;;;;;;17.40;58.20;;;;;;5087475;28;20401;-57
2022/05/21 00:31:23;;;;;;;;;;;17.40;58.30;;;;;;5087423;28;19977;-56
2022/05/21 00:33:49;;;;;;;;;;;17.40;58.20;;;;;;5088185;28;19908;-58
2022/05/21 00:36:15;;;;;;;;;;;17.40;58.10;;;;;;5088161;28;19914;-57
2022/05/21 00:38:41;;;;;;;;;;;17.40;58.10;;;;;;5090291;28;19929;-57
2022/05/21 00:41:07;;;;;;;;;;;17.40;58.10;;;;;;5085284;28;19912;-57
2022/05/21 00:43:38;;;;;;;;;;;17.40;58.20;;;;;;5087235;28;19960;-57
2022/05/21 00:46:05;;;;;;;;;;;17.40;58.10;;;;;;5083676;28;19909;-57
2022/05/21 00:48:31;;;;;;;;;;;17.40;58.10;;;;;;5088072;28;20379;-57
2022/05/21 00:50:57;;;;;;;;;;;17.40;58.00;;;;;;5087180;28;19908;-56
2022/05/21 00:53:23;;;;;;;;;;;17.40;58.00;;;;;;5086759;28;20560;-57
2022/05/21 00:55:50;;;;;;;;;;;17.40;58.00;;;;;;5088737;28;20002;-57
2022/05/21 01:01:03;;;;;;;;;;;17.40;57.90;;;;;;5085894;28;19915;-56
2022/05/21 01:03:29;;;;;;;;;;;17.40;57.90;;;;;;5084137;28;19908;-57
2022/05/21 01:05:57;;;;;;;;;;;17.40;57.90;;;;;;5082313;28;19916;-57
2022/05/21 01:08:22;;;;;;;;;;;17.40;57.90;;;;;;5088362;28;19912;-57
2022/05/21 01:10:50;;;;;;;;;;;17.40;57.80;;;;;;5087721;28;20462;-57
2022/05/21 01:13:18;;;;;;;;;;;17.40;58.00;;;;;;5088093;28;19998;-57
2022/05/21 01:15:45;;;;;;;;;;;17.40;57.90;;;;;;5085898;28;19916;-57
2022/05/21 01:18:11;;;;;;;;;;;17.40;58.00;;;;;;5088098;28;19915;-57
2022/05/21 01:20:36;;;;;;;;;;;17.40;57.70;;;;;;5088685;28;19908;-57
2022/05/21 01:23:02;;;;;;;;;;;17.30;57.60;;;;;;5089751;28;19915;-57
2022/05/21 01:25:29;;;;;;;;;;;17.30;57.70;;;;;;5093462;28;19912;-57
2022/05/21 01:27:54;;;;;;;;;;;17.30;57.50;;;;;;5091580;28;19912;-57
2022/05/21 01:30:24;;;;;;;;;;;17.30;57.50;;;;;;5092186;28;19965;-55
2022/05/21 01:32:50;;;;;;;;;;;17.30;57.60;;;;;;5089387;28;19938;-57
2022/05/21 01:35:18;;;;;;;;;;;17.20;57.50;;;;;;5091909;28;20377;-57
2022/05/21 01:37:44;;;;;;;;;;;17.20;57.40;;;;;;5092505;28;19908;-57
2022/05/21 01:40:10;;;;;;;;;;;17.20;57.50;;;;;;5092418;28;20661;-58
2022/05/21 01:42:35;;;;;;;;;;;17.20;57.40;;;;;;5094019;28;19915;-57
2022/05/21 01:45:01;;;;;;;;;;;17.20;57.40;;;;;;5089982;28;20328;-57
2022/05/21 01:47:29;;;;;;;;;;;17.20;57.40;;;;;;5092122;28;19908;-57
2022/05/21 01:49:54;;;;;;;;;;;17.20;57.40;;;;;;5092101;28;19919;-57
2022/05/21 01:52:20;;;;;;;;;;;17.20;57.40;;;;;;5091910;28;19911;-56
2022/05/21 01:54:45;;;;;;;;;;;17.20;57.40;;;;;;5091826;28;19915;-57
2022/05/21 01:57:11;;;;;;;;;;;17.20;57.50;;;;;;5090841;28;19909;-57
2022/05/21 01:59:37;;;;;;;;;;;17.20;57.50;;;;;;5092102;28;19915;-58
2022/05/21 02:02:03;;;;;;;;;;;17.20;57.40;;;;;;5089114;28;20476;-57
2022/05/21 02:04:29;;;;;;;;;;;17.20;57.40;;;;;;5091998;28;20050;-57
2022/05/21 02:06:54;;;;;;;;;;;17.20;57.40;;;;;;5090397;28;19908;-57
2022/05/21 02:09:20;;;;;;;;;;;17.30;57.40;;;;;;5091480;28;19962;-57
2022/05/21 02:11:45;;;;;;;;;;;17.30;57.40;;;;;;5091483;28;19999;-57
2022/05/21 02:14:11;;;;;;;;;;;17.30;57.30;;;;;;5089694;28;20368;-57
2022/05/21 02:16:37;;;;;;;;;;;17.30;57.30;;;;;;5091328;28;19947;-57
2022/05/21 02:19:04;;;;;;;;;;;17.40;57.30;;;;;;5089660;28;19951;-57
2022/05/21 02:21:30;;;;;;;;;;;17.40;57.30;;;;;;5091525;28;19961;-57
2022/05/21 02:23:55;;;;;;;;;;;17.40;57.30;;;;;;5091098;28;19912;-57
2022/05/21 02:26:21;;;;;;;;;;;17.50;57.30;;;;;;5091326;28;19919;-57
2022/05/21 02:28:46;;;;;;;;;;;17.50;57.20;;;;;;5091050;28;19916;-57
2022/05/21 02:31:12;;;;;;;;;;;17.60;57.30;;;;;;5090557;28;19915;-57
2022/05/21 02:33:39;;;;;;;;;;;17.60;57.30;;;;;;5090969;28;19912;-57
2022/05/21 02:36:05;;;;;;;;;;;17.60;57.10;;;;;;5088562;28;19908;-57
2022/05/21 02:41:15;;;;;;;;;;;17.70;57.10;;;;;;5089977;28;20025;-57
2022/05/21 02:43:43;;;;;;;;;;;17.70;57.10;;;;;;5091678;28;19908;-57
2022/05/21 02:46:09;;;;;;;;;;;17.80;57.10;;;;;;5089200;28;19965;-57
2022/05/21 02:48:35;;;;;;;;;;;17.80;57.70;;;;;;5091293;28;20290;-57
2022/05/21 02:51:01;;;;;;;;;;;17.80;57.10;;;;;;5090695;28;19995;-57
2022/05/21 02:53:26;;;;;;;;;;;17.90;57.10;;;;;;5090779;28;19908;-57
2022/05/21 02:55:55;;;;;;;;;;;18.00;57.00;;;;;;5087716;28;19911;-57
2022/05/21 02:58:21;;;;;;;;;;;18.00;57.10;;;;;;5090021;28;19938;-57
2022/05/21 03:00:47;;;;;;;;;;;18.10;57.10;;;;;;5092267;28;19955;-57
2022/05/21 03:03:13;;;;;;;;;;;18.20;57.10;;;;;;5092260;28;19908;-58
2022/05/21 03:05:38;;;;;;;;;;;18.30;57.10;;;;;;5090933;28;19916;-56
2022/05/21 03:10:51;;;;;;;;;;;18.40;57.00;;;;;;5089340;28;19919;-57
2022/05/21 03:13:16;;;;;;;;;;;18.50;57.00;;;;;;5089809;28;19908;-58
2022/05/21 03:15:42;;;;;;;;;;;18.60;56.90;;;;;;5089943;28;19942;-57
2022/05/21 03:18:09;;;;;;;;;;;18.70;56.90;;;;;;5087239;28;19915;-57
2022/05/21 03:20:37;;;;;;;;;;;18.80;57.00;;;;;;5088537;28;19998;-57
2022/05/21 03:23:03;;;;;;;;;;;18.90;57.10;;;;;;5086977;28;19935;-57
2022/05/21 03:25:29;;;;;;;;;;;19.00;57.10;;;;;;5088360;28;20321;-57
2022/05/21 03:27:55;;;;;;;;;;;19.20;57.20;;;;;;5088734;28;20003;-57
2022/05/21 03:30:22;;;;;;;;;;;19.30;57.00;;;;;;5088523;28;20003;-57
2022/05/21 03:32:48;;;;;;;;;;;19.50;57.20;;;;;;5088030;28;19953;-57
2022/05/21 03:35:16;;;;;;;;;;;19.70;57.40;;;;;;5086683;28;19912;-56
2022/05/21 03:37:42;;;;;;;;;;;19.90;57.40;;;;;;5087846;28;19954;-57
2022/05/21 03:40:09;;;;;;;;;;;20.10;57.20;;;;;;5089175;28;19999;-57
2022/05/21 03:42:35;;;;;;;;;;;20.30;57.20;;;;;;5089232;28;19908;-57
2022/05/21 03:45:01;;;;;;;;;;;20.50;57.30;;;;;;5087351;28;20330;-57
2022/05/21 03:47:26;;;;;;;;;;;20.90;57.30;;;;;;5090656;28;19935;-57
2022/05/21 03:49:52;;;;;;;;;;;21.30;57.30;;;;;;5086871;28;20383;-57
2022/05/21 03:52:17;;;;;;;;;;;21.80;57.30;;;;;;5089084;28;19944;-57
2022/05/21 03:54:43;;;;;;;;;;;22.40;57.10;;;;;;5090374;28;20404;-57
2022/05/21 03:57:10;;;;;;;;;;;23.20;56.70;;;;;;5088751;28;20002;-58
2022/05/21 03:59:36;;;;;;;;;;;24.00;56.10;;;;;;5090219;28;19908;-58
2022/05/21 04:02:02;;;;;;;;;;;24.70;54.90;;;;;;5088184;28;19931;-57
2022/05/21 04:04:27;;;;;;;;;;;25.10;53.80;;;;;;5089974;28;19908;-58
2022/05/21 04:06:53;;;;;;;;;;;25.20;53.20;;;;;;5089655;28;19908;-57
2022/05/21 04:09:19;;;;;;;;;;;25.20;52.70;;;;;;5085018;28;19916;-57
2022/05/21 04:11:44;;;;;;;;;;;25.00;52.60;;;;;;5089574;28;20406;-57
2022/05/21 04:14:12;;;;;;;;;;;24.80;52.40;;;;;;5088095;28;20395;-57
2022/05/21 04:16:38;;;;;;;;;;;24.60;52.60;;;;;;5089647;28;19915;-58
2022/05/21 04:19:04;;;;;;;;;;;24.50;52.80;;;;;;5086217;28;19908;-58
2022/05/21 04:21:30;;;;;;;;;;;24.20;52.90;;;;;;5089924;28;19916;-57
2022/05/21 04:23:55;;;;;;;;;;;24.10;53.10;;;;;;5089142;28;19908;-57
2022/05/21 04:26:21;;;;;;;;;;;23.80;53.20;;;;;;5088392;28;19913;-57
2022/05/21 04:28:47;;;;;;;;;;;23.70;53.40;;;;;;5090010;28;20272;-58
2022/05/21 04:31:12;;;;;;;;;;;23.60;53.40;;;;;;5087801;28;19986;-57
2022/05/21 04:33:38;;;;;;;;;;;23.40;53.70;;;;;;5089605;28;19908;-57
2022/05/21 04:36:18;;;;;;;;;;;23.30;53.80;;;;;;5087674;28;20387;-57
2022/05/21 04:38:47;;;;;;;;;;;23.30;54.00;;;;;;5089608;28;19908;-57
2022/05/21 04:41:13;;;;;;;;;;;23.20;54.00;;;;;;5089070;28;19965;-57
2022/05/21 04:43:39;;;;;;;;;;;23.20;54.20;;;;;;5089451;28;20429;-58
2022/05/21 04:46:05;;;;;;;;;;;23.10;54.30;;;;;;5088892;28;19907;-57
2022/05/21 04:48:31;;;;;;;;;;;23.20;54.50;;;;;;5089006;28;20388;-57
2022/05/21 04:51:00;;;;;;;;;;;23.20;54.60;;;;;;5089085;28;19995;-57
2022/05/21 04:53:26;;;;;;;;;;;23.30;54.40;;;;;;5087978;28;19912;-58
2022/05/21 04:55:52;;;;;;;;;;;23.40;54.40;;;;;;5089468;28;19912;-57
2022/05/21 04:58:17;;;;;;;;;;;23.50;54.40;;;;;;5087202;28;19911;-57
2022/05/21 05:00:43;;;;;;;;;;;23.70;54.30;;;;;;5089249;28;19908;-58
2022/05/21 05:03:15;;;;;;;;;;;23.70;54.10;;;;;;5086325;28;20295;-57
2022/05/21 05:05:42;;;;;;;;;;;23.70;54.20;;;;;;5089239;28;19908;-57
2022/05/21 05:08:08;;;;;;;;;;;23.80;54.10;;;;;;5087427;28;19962;-56
2022/05/21 05:10:33;;;;;;;;;;;23.80;54.20;;;;;;5087423;28;19936;-57
2022/05/21 05:12:59;;;;;;;;;;;23.70;54.10;;;;;;5087983;28;19943;-58
2022/05/21 05:15:25;;;;;;;;;;;23.70;54.20;;;;;;5088249;28;19908;-58
2022/05/21 05:17:56;;;;;;;;;;;23.70;54.20;;;;;;5088912;28;19914;-57
2022/05/21 05:20:22;;;;;;;;;;;23.70;54.30;;;;;;5087456;28;19912;-58
2022/05/21 05:22:47;;;;;;;;;;;23.60;54.30;;;;;;5089270;28;19915;-57
2022/05/21 05:25:13;;;;;;;;;;;23.50;54.30;;;;;;5087422;28;19999;-57
2022/05/21 05:27:38;;;;;;;;;;;23.40;54.30;;;;;;5086491;28;19976;-57
2022/05/21 05:30:06;;;;;;;;;;;23.40;54.50;;;;;;5089224;28;19920;-57
2022/05/21 05:32:32;;;;;;;;;;;23.30;54.60;;;;;;5088761;28;20325;-57
2022/05/21 05:34:57;;;;;;;;;;;23.20;54.60;;;;;;5089043;28;19908;-57
2022/05/21 05:37:23;;;;;;;;;;;23.20;54.70;;;;;;5087429;28;19909;-57
2022/05/21 05:39:48;;;;;;;;;;;23.20;54.90;;;;;;5087895;28;19908;-58
2022/05/21 05:42:14;;;;;;;;;;;23.10;55.20;;;;;;5082800;28;19916;-57
2022/05/21 05:44:39;;;;;;;;;;;23.10;55.00;;;;;;5088255;28;19912;-58
2022/05/21 05:47:05;;;;;;;;;;;23.20;55.10;;;;;;5087706;28;20002;-57
2022/05/21 05:49:31;;;;;;;;;;;23.20;55.20;;;;;;5088310;28;19926;-57
2022/05/21 05:51:58;;;;;;;;;;;23.20;55.20;;;;;;5088285;28;20421;-57
2022/05/21 05:54:23;;;;;;;;;;;23.30;55.20;;;;;;5088548;28;19982;-57
2022/05/21 05:56:49;;;;;;;;;;;23.30;55.30;;;;;;5089057;28;19912;-58
2022/05/21 06:04:43;;;;;;;;;;;23.60;55.20;;;;;;5085755;28;20428;-57
2022/05/21 06:07:12;;;;;;;;;;;23.70;55.00;;;;;;5087617;28;19908;-57
2022/05/21 06:09:38;;;;;;;;;;;23.80;54.90;;;;;;5089028;28;19912;-56
2022/05/21 06:12:04;;;;;;;;;;;23.80;54.90;;;;;;5091673;28;20048;-56
2022/05/21 06:14:29;;;;;;;;;;;23.80;54.90;;;;;;5090923;28;19912;-57
2022/05/21 06:16:55;;;;;;;;;;;23.80;54.80;;;;;;5092369;28;19908;-57
2022/05/21 06:19:20;;;;;;;;;;;23.90;54.90;;;;;;5090437;28;20251;-57
2022/05/21 06:21:46;;;;;;;;;;;23.90;55.00;;;;;;5093296;28;19969;-57
2022/05/21 06:24:11;;;;;;;;;;;24.00;55.10;;;;;;5090519;28;19947;-57
2022/05/21 06:26:37;;;;;;;;;;;24.10;55.10;;;;;;5091764;28;19990;-57
2022/05/21 06:29:02;;;;;;;;;;;24.10;55.10;;;;;;5088831;28;20294;-57
2022/05/21 06:31:28;;;;;;;;;;;24.20;54.90;;;;;;5090370;28;19953;-58
2022/05/21 06:33:53;;;;;;;;;;;24.30;54.90;;;;;;5089045;28;20322;-57
2022/05/21 06:36:19;;;;;;;;;;;24.30;54.80;;;;;;5091299;28;19969;-57
2022/05/21 06:38:45;;;;;;;;;;;24.40;54.90;;;;;;5093345;28;19911;-57
2022/05/21 06:41:10;;;;;;;;;;;24.50;54.80;;;;;;5091586;28;20287;-57
2022/05/21 06:43:36;;;;;;;;;;;24.50;54.80;;;;;;5088533;28;19912;-57
2022/05/21 06:46:02;;;;;;;;;;;24.50;54.70;;;;;;5091482;28;20356;-57
2022/05/21 06:48:28;;;;;;;;;;;24.50;54.70;;;;;;5087382;28;20014;-58
2022/05/21 06:50:53;;;;;;;;;;;24.60;54.70;;;;;;5091544;28;19945;-57
2022/05/21 06:53:19;;;;;;;;;;;24.60;54.80;;;;;;5090222;28;19912;-57
2022/05/21 06:55:45;;;;;;;;;;;24.60;54.70;;;;;;5091289;28;19953;-58
2022/05/21 06:58:11;;;;;;;;;;;24.60;54.70;;;;;;5086713;28;19915;-56
2022/05/21 07:00:36;;;;;;;;;;;24.60;54.70;;;;;;5091564;28;19908;-57
2022/05/21 07:03:02;;;;;;;;;;;24.70;54.60;;;;;;5090937;28;20409;-57
2022/05/21 07:08:17;;;;;;;;;;;24.70;54.70;;;;;;5087637;28;19914;-58
2022/05/21 07:10:42;;;;;;;;;;;24.70;54.80;;;;;;5088580;28;19961;-57
2022/05/21 07:13:08;;;;;;;;;;;24.70;54.80;;;;;;5089867;28;19908;-58
2022/05/21 07:15:33;;;;;;;;;;;24.70;54.80;;;;;;5090330;28;19912;-57
2022/05/21 07:18:00;;;;;;;;;;;24.70;54.80;;;;;;5093198;28;20011;-57
2022/05/21 07:20:26;;;;;;;;;;;24.70;54.80;;;;;;5077594;28;19965;-58
2022/05/21 07:22:52;;;;;;;;;;;24.70;54.60;;;;;;5088510;28;19909;-58
2022/05/21 07:25:20;;;;;;;;;;;24.70;54.80;;;;;;5081615;28;20472;-57
2022/05/21 07:27:46;;;;;;;;;;;24.70;54.90;;;;;;5088582;28;19904;-58
2022/05/21 07:30:12;;;;;;;;;;;24.70;55.00;;;;;;5078409;28;19913;-58
2022/05/21 07:32:37;;;;;;;;;;;24.70;55.10;;;;;;5092585;28;19904;-56
2022/05/21 07:35:05;;;;;;;;;;;24.80;55.10;;;;;;5088079;28;19911;-57
2022/05/21 07:37:30;;;;;;;;;;;24.80;55.00;;;;;;5084186;28;19935;-57
2022/05/21 07:39:56;;;;;;;;;;;24.90;55.10;;;;;;5094559;28;19908;-57
2022/05/21 07:42:22;;;;;;;;;;;25.00;55.00;;;;;;5093008;28;19911;-57
2022/05/21 07:44:47;;;;;;;;;;;25.10;54.80;;;;;;5081163;28;19980;-57
2022/05/21 07:47:13;;;;;;;;;;;25.20;54.80;;;;;;5092321;28;19904;-57
2022/05/21 07:49:39;;;;;;;;;;;25.30;54.80;;;;;;5094087;28;19915;-57
2022/05/21 07:52:05;;;;;;;;;;;25.30;54.70;;;;;;5085013;28;19999;-57
2022/05/21 07:54:31;;;;;;;;;;;25.40;54.70;;;;;;5091432;28;19911;-55
2022/05/21 07:56:56;;;;;;;;;;;25.50;54.70;;;;;;5093873;28;19911;-57
2022/05/21 07:59:22;;;;;;;;;;;25.60;54.70;;;;;;5093350;28;20002;-57
2022/05/21 08:01:47;;;;;;;;;;;25.60;54.50;;;;;;5081721;28;20418;-57
2022/05/21 08:04:13;;;;;;;;;;;25.70;54.50;;;;;;5087735;28;20363;-57
2022/05/21 08:06:38;;;;;;;;;;;25.70;54.50;;;;;;5093088;28;19965;-57
2022/05/21 08:09:04;;;;;;;;;;;25.80;54.50;;;;;;5089622;28;19956;-57
2022/05/21 08:11:29;;;;;;;;;;;25.80;54.20;;;;;;5090817;28;19947;-57
2022/05/21 08:13:55;;;;;;;;;;;25.90;54.30;;;;;;5089668;28;19904;-57
2022/05/21 08:16:22;;;;;;;;;;;25.90;54.20;;;;;;5084595;28;20349;-57
2022/05/21 08:18:48;;;;;;;;;;;25.90;54.00;;;;;;5090679;28;19912;-57
2022/05/21 08:21:14;;;;;;;;;;;25.90;54.00;;;;;;5093923;28;19904;-57
2022/05/21 08:29:08;;;;;;;;;;;26.00;54.20;;;;;;5087599;28;19957;-57
2022/05/21 08:31:33;;;;;;;;;;;26.00;54.20;;;;;;5073386;28;19999;-57
2022/05/21 08:34:00;;;;;;;;;;;26.00;54.20;;;;;;5085083;28;19998;-57
2022/05/21 08:36:26;;;;;;;;;;;26.10;54.40;;;;;;5089731;28;20253;-57
2022/05/21 08:38:51;;;;;;;;;;;26.10;54.20;;;;;;5093827;28;19915;-57
2022/05/21 08:41:21;;;;;;;;;;;26.20;54.30;;;;;;5087714;28;19989;-57
2022/05/21 08:43:47;;;;;;;;;;;26.20;54.20;;;;;;5089785;28;19908;-57
2022/05/21 08:46:17;;;;;;;;;;;26.20;54.10;;;;;;5087794;28;19908;-57
2022/05/21 08:48:49;;;;;;;;;;;26.20;54.10;;;;;;5089293;28;19981;-58
2022/05/21 08:51:19;;;;;;;;;;;26.20;54.00;;;;;;5086621;28;20415;-56
2022/05/21 08:53:49;;;;;;;;;;;26.30;54.10;;;;;;5087812;28;19908;-57
2022/05/21 08:56:15;;;;;;;;;;;26.30;54.00;;;;;;5084151;28;19931;-57
2022/05/21 08:58:46;;;;;;;;;;;26.30;53.90;;;;;;5090758;28;19912;-57
2022/05/21 09:01:13;;;;;;;;;;;26.30;53.90;;;;;;5087785;28;19908;-57
2022/05/21 09:03:39;;;;;;;;;;;26.30;53.80;;;;;;5089256;28;19908;-57
2022/05/21 09:06:19;;;;;;;;;;;26.30;53.90;;;;;;5087517;28;20007;-57
2022/05/21 09:08:52;;;;;;;;;;;26.30;53.90;;;;;;5088157;28;19952;-57
2022/05/21 09:11:22;;;;;;;;;;;26.30;54.20;;;;;;5087426;28;19912;-57
2022/05/21 09:13:55;;;;;;;;;;;26.30;53.90;;;;;;5089471;28;20236;-57
2022/05/21 09:19:08;;;;;;;;;;;26.30;53.90;;;;;;5086666;28;19935;-57
2022/05/21 09:21:34;;;;;;;;;;;26.40;54.00;;;;;;5089522;28;20402;-56
2022/05/21 09:24:01;;;;;;;;;;;26.50;53.90;;;;;;5086298;28;19915;-57
2022/05/21 09:26:28;;;;;;;;;;;26.40;53.90;;;;;;5085058;28;19912;-57
2022/05/21 09:29:10;;;;;;;;;;;26.50;53.80;;;;;;5090110;28;19920;-57
2022/05/21 09:31:36;;;;;;;;;;;26.50;54.00;;;;;;5086709;28;20330;-57
2022/05/21 09:34:24;;;;;;;;;;;26.50;54.00;;;;;;5087612;28;19946;-57
2022/05/21 09:36:50;;;;;;;;;;;26.40;53.60;;;;;;5078049;28;19965;-57
2022/05/21 09:39:29;;;;;;;;;;;26.50;53.40;;;;;;5089281;28;19916;-57
2022/05/21 09:45:24;;;;;;;;;;;26.40;53.40;;;;;;5089367;28;19919;-57
2022/05/21 09:47:51;;;;;;;;;;;26.50;53.50;;;;;;5092495;28;20333;-56
2022/05/21 09:50:20;;;;;;;;;;;26.40;53.60;;;;;;5092970;28;19912;-57
2022/05/21 09:52:47;;;;;;;;;;;26.40;53.40;;;;;;5092664;28;19958;-57
2022/05/21 09:55:31;;;;;;;;;;;26.40;53.10;;;;;;5092138;28;19914;-57
2022/05/21 09:58:07;;;;;;;;;;;26.40;53.00;;;;;;5089447;28;19926;-57
2022/05/21 10:00:34;;;;;;;;;;;26.40;53.20;;;;;;5089800;28;19932;-57
2022/05/21 10:03:03;;;;;;;;;;;26.40;53.10;;;;;;5091757;28;19919;-57
2022/05/21 10:05:37;;;;;;;;;;;26.40;53.10;;;;;;5088734;28;19908;-57
2022/05/21 10:11:05;;;;;;;;;;;26.40;53.40;;;;;;5092697;28;19918;-57
2022/05/21 10:13:35;;;;;;;;;;;26.30;53.20;;;;;;5089876;28;20344;-57
2022/05/21 10:16:14;;;;;;;;;;;26.40;52.80;;;;;;5082450;28;19908;-57
2022/05/21 10:18:43;;;;;;;;;;;26.40;52.90;;;;;;5089434;28;20040;-57
2022/05/21 10:21:27;;;;;;;;;;;26.50;53.20;;;;;;5087996;28;19943;-57
2022/05/21 10:23:56;;;;;;;;;;;26.50;53.10;;;;;;5092573;28;19908;-57
2022/05/21 10:26:35;;;;;;;;;;;26.50;52.90;;;;;;5090658;28;19995;-57
2022/05/21 10:29:27;;;;;;;;;;;26.60;52.80;;;;;;5089093;28;19915;-57
2022/05/21 10:31:55;;;;;;;;;;;26.60;52.90;;;;;;5091152;28;20397;-57
2022/05/21 10:34:23;;;;;;;;;;;26.60;52.70;;;;;;5092664;28;19908;-57
2022/05/21 10:36:51;;;;;;;;;;;26.60;52.80;;;;;;5096469;28;20364;-57
2022/05/21 10:39:20;;;;;;;;;;;26.70;53.00;;;;;;5092889;28;19918;-57
2022/05/21 10:41:48;;;;;;;;;;;26.70;52.80;;;;;;5089230;28;19907;-57
2022/05/21 10:44:27;;;;;;;;;;;26.70;52.80;;;;;;5087159;28;19951;-57
2022/05/21 10:46:59;;;;;;;;;;;26.70;52.70;;;;;;5091576;28;19908;-57
2022/05/21 10:49:43;;;;;;;;;;;26.70;52.70;;;;;;5089634;28;20006;-57
2022/05/21 10:52:32;;;;;;;;;;;26.60;52.50;;;;;;5090750;28;19915;-57
2022/05/21 10:55:18;;;;;;;;;;;26.50;52.40;;;;;;5091697;28;19908;-57
2022/05/21 10:57:46;;;;;;;;;;;26.50;52.30;;;;;;5085569;28;19915;-57
2022/05/21 11:00:31;;;;;;;;;;;26.50;52.30;;;;;;5089093;28;19980;-57
2022/05/21 11:03:15;;;;;;;;;;;26.50;52.20;;;;;;5093208;28;19914;-57
2022/05/21 11:05:59;;;;;;;;;;;26.60;52.20;;;;;;5089588;28;19908;-57
2022/05/21 11:08:51;;;;;;;;;;;26.60;52.40;;;;;;5087815;28;19916;-57
2022/05/21 11:11:28;;;;;;;;;;;26.70;52.50;;;;;;5082234;28;19914;-57
2022/05/21 11:13:57;;;;;;;;;;;26.80;52.30;;;;;;5092814;28;19939;-57
2022/05/21 11:16:41;;;;;;;;;;;26.80;52.30;;;;;;5090205;28;20455;-57
2022/05/21 11:19:10;;;;;;;;;;;26.90;52.50;;;;;;5089593;28;19931;-57
2022/05/21 11:21:41;;;;;;;;;;;26.90;52.00;;;;;;5089709;28;20336;-57
2022/05/21 11:24:11;;;;;;;;;;;26.90;51.80;;;;;;5087317;28;20260;-57
2022/05/21 11:26:40;;;;;;;;;;;26.90;51.50;;;;;;5088318;28;19912;-57
2022/05/21 11:29:08;;;;;;;;;;;26.90;51.40;;;;;;5086457;28;19923;-57
2022/05/21 11:37:24;;;;;;;;;;;26.50;54.90;;;;;;5078678;28;19947;-57
2022/05/21 11:39:53;;;;;;;;;;;26.00;56.10;;;;;;5088451;28;19985;-57
2022/05/21 11:42:28;;;;;;;;;;;25.50;56.90;;;;;;5086906;28;20445;-57
2022/05/21 11:44:55;;;;;;;;;;;25.00;58.10;;;;;;5087719;28;20351;-57
2022/05/21 11:47:21;;;;;;;;;;;24.40;58.80;;;;;;5090629;28;19996;-57
2022/05/21 11:49:53;;;;;;;;;;;24.00;59.60;;;;;;5087327;28;19952;-57
2022/05/21 11:52:27;;;;;;;;;;;23.60;60.40;;;;;;5088964;28;19999;-58
2022/05/21 11:54:53;;;;;;;;;;;23.30;60.90;;;;;;5092113;28;19908;-58
2022/05/21 11:57:38;;;;;;;;;;;23.10;61.60;;;;;;5087083;28;19974;-58
2022/05/21 12:00:07;;;;;;;;;;;23.00;62.10;;;;;;5087227;28;19908;-57
2022/05/21 12:02:34;;;;;;;;;;;22.70;62.60;;;;;;5091580;28;20038;-58
2022/05/21 12:05:22;;;;;;;;;;;22.60;62.70;;;;;;5087766;28;19919;-58
2022/05/21 12:07:49;;;;;;;;;;;22.50;63.00;;;;;;5084955;28;19908;-58
2022/05/21 12:10:26;;;;;;;;;;;22.50;63.50;;;;;;5089537;28;19912;-58
2022/05/21 12:13:12;;;;;;;;;;;22.40;63.60;;;;;;5088838;28;19908;-58
2022/05/21 12:15:39;;;;;;;;;;;22.30;63.90;;;;;;5087666;28;19908;-58
2022/05/21 12:18:09;;;;;;;;;;;22.30;64.10;;;;;;5088964;28;19955;-56
2022/05/21 12:20:41;;;;;;;;;;;22.30;64.40;;;;;;5088060;28;19998;-59
2022/05/21 12:23:10;;;;;;;;;;;22.20;64.10;;;;;;5086952;28;19990;-57
2022/05/21 12:25:42;;;;;;;;;;;22.20;64.60;;;;;;5088913;28;19958;-58
2022/05/21 12:28:11;;;;;;;;;;;22.20;64.70;;;;;;5083499;28;19958;-58
2022/05/21 12:30:37;;;;;;;;;;;22.10;64.80;;;;;;5087045;28;20380;-58
2022/05/21 12:33:03;;;;;;;;;;;22.00;65.30;;;;;;5089428;28;19995;-57
2022/05/21 12:35:31;;;;;;;;;;;21.90;65.40;;;;;;5090136;28;20355;-58
2022/05/21 12:37:56;;;;;;;;;;;21.80;65.80;;;;;;5089902;28;20382;-58
2022/05/21 12:40:34;;;;;;;;;;;21.70;66.30;;;;;;5089327;28;19908;-58
2022/05/21 12:43:07;;;;;;;;;;;21.60;66.50;;;;;;5089361;28;19969;-58
2022/05/21 12:45:37;;;;;;;;;;;21.50;66.60;;;;;;5089737;28;20275;-57
2022/05/21 12:48:12;;;;;;;;;;;21.40;66.90;;;;;;5066500;28;19908;-56
2022/05/21 12:50:50;;;;;;;;;;;21.30;67.70;;;;;;5063595;28;20389;-57
2022/05/21 12:53:20;;;;;;;;;;;21.20;67.70;;;;;;5083774;28;20355;-56
2022/05/21 12:55:45;;;;;;;;;;;21.20;67.70;;;;;;5083802;28;19954;-56
2022/05/21 12:58:11;;;;;;;;;;;21.20;68.00;;;;;;5072436;28;19912;-56
2022/05/21 13:00:37;;;;;;;;;;;21.10;68.20;;;;;;5085828;28;19908;-56
2022/05/21 13:03:09;;;;;;;;;;;21.10;68.30;;;;;;5089496;28;19908;-56
2022/05/21 13:05:37;;;;;;;;;;;21.20;68.30;;;;;;5082572;28;20428;-57
2022/05/21 13:08:04;;;;;;;;;;;21.20;68.10;;;;;;5086408;28;19912;-57
2022/05/21 13:10:33;;;;;;;;;;;21.20;68.40;;;;;;5088907;28;19920;-57
2022/05/21 13:13:10;;;;;;;;;;;21.20;68.50;;;;;;5087142;28;19915;-57
2022/05/21 13:15:41;;;;;;;;;;;21.30;68.70;;;;;;5085890;28;19930;-56
2022/05/21 13:18:25;;;;;;;;;;;21.30;68.70;;;;;;5086757;28;19908;-55
2022/05/21 13:21:03;;;;;;;;;;;21.40;68.80;;;;;;5093541;28;19914;-56
2022/05/21 13:23:47;;;;;;;;;;;21.40;68.90;;;;;;5088960;28;19915;-57
2022/05/21 13:26:18;;;;;;;;;;;21.50;68.80;;;;;;5090602;28;19920;-57
2022/05/21 13:28:43;;;;;;;;;;;21.60;68.80;;;;;;5086173;28;20496;-57
2022/05/21 13:31:16;;;;;;;;;;;21.60;68.80;;;;;;5092971;28;20002;-57
2022/05/21 13:33:47;;;;;;;;;;;21.70;68.80;;;;;;5097159;28;19908;-57
2022/05/21 13:36:13;;;;;;;;;;;21.80;68.70;;;;;;5094096;28;19915;-57
2022/05/21 13:38:40;;;;;;;;;;;21.80;68.50;;;;;;5089883;28;19974;-57
2022/05/21 13:41:11;;;;;;;;;;;21.90;68.40;;;;;;5093701;28;19908;-56
2022/05/21 13:43:40;;;;;;;;;;;22.00;68.30;;;;;;5090571;28;20463;-56
2022/05/21 13:46:07;;;;;;;;;;;22.00;68.60;;;;;;5091493;28;19915;-57
2022/05/21 13:48:37;;;;;;;;;;;22.00;68.60;;;;;;5091979;28;19912;-56
2022/05/21 13:51:03;;;;;;;;;;;22.00;68.40;;;;;;5092801;28;19908;-55
2022/05/21 13:53:29;;;;;;;;;;;22.00;68.20;;;;;;5088840;28;19908;-57
2022/05/21 13:55:56;;;;;;;;;;;22.10;68.40;;;;;;5095028;28;19934;-57
2022/05/21 13:58:29;;;;;;;;;;;22.00;68.80;;;;;;5089907;28;20368;-58
2022/05/21 14:00:56;;;;;;;;;;;22.00;69.20;;;;;;5089225;28;19933;-55
2022/05/21 14:03:27;;;;;;;;;;;21.90;69.00;;;;;;5088521;28;19942;-56
2022/05/21 14:05:54;;;;;;;;;;;21.80;69.10;;;;;;5089026;28;19908;-56
2022/05/21 14:08:35;;;;;;;;;;;21.80;69.50;;;;;;5087158;28;20304;-56
2022/05/21 14:11:05;;;;;;;;;;;21.80;69.50;;;;;;5092404;28;19908;-56
2022/05/21 14:13:44;;;;;;;;;;;21.90;69.90;;;;;;5091545;28;19915;-56
2022/05/21 14:16:33;;;;;;;;;;;21.90;70.00;;;;;;5094782;28;19993;-56
2022/05/21 14:19:00;;;;;;;;;;;22.00;70.10;;;;;;5091375;28;19988;-56
2022/05/21 14:21:26;;;;;;;;;;;22.00;70.50;;;;;;5091382;28;19982;-56
2022/05/21 14:24:11;;;;;;;;;;;22.10;69.80;;;;;;5092899;28;19908;-56
2022/05/21 14:26:36;;;;;;;;;;;22.10;69.80;;;;;;5093217;28;19912;-56
2022/05/21 14:29:20;;;;;;;;;;;22.20;69.70;;;;;;5089742;28;19919;-57
2022/05/21 14:31:49;;;;;;;;;;;22.20;69.60;;;;;;5089269;28;19908;-56
2022/05/21 14:34:14;;;;;;;;;;;22.20;69.60;;;;;;5094288;28;19904;-56
2022/05/21 14:36:44;;;;;;;;;;;22.20;69.80;;;;;;5093358;28;20477;-56
2022/05/21 14:39:13;;;;;;;;;;;22.20;69.60;;;;;;5094775;28;19912;-55
2022/05/21 14:41:40;;;;;;;;;;;22.20;69.70;;;;;;5088235;28;19909;-55
2022/05/21 14:44:14;;;;;;;;;;;22.20;69.80;;;;;;5092612;28;19957;-56
2022/05/21 14:49:25;;;;;;;;;;;22.20;70.20;;;;;;5087010;28;19915;-55
2022/05/21 14:54:38;;;;;;;;;;;22.20;69.90;;;;;;5088942;28;19929;-55
2022/05/21 14:57:03;;;;;;;;;;;22.20;69.90;;;;;;5092569;28;19999;-56
2022/05/21 14:59:29;;;;;;;;;;;22.20;70.10;;;;;;5090916;28;20007;-55
2022/05/21 15:01:55;;;;;;;;;;;22.20;70.20;;;;;;5093758;28;19911;-55
2022/05/21 15:04:21;;;;;;;;;;;22.30;70.20;;;;;;5094159;28;19904;-56
2022/05/21 15:06:47;;;;;;;;;;;22.30;69.80;;;;;;5091621;28;19987;-55